createdAt,value
2023-04-15T00:01:45.145Z,4
2023-04-15T00:03:45.420Z,6
2023-04-15T00:05:45.169Z,5
2023-04-15T00:07:45.283Z,5
2023-04-15T00:09:45.408Z,7
2023-04-15T00:11:45.495Z,5
2023-04-15T00:13:45.616Z,6
2023-04-15T00:15:45.711Z,7
2023-04-15T00:17:45.780Z,5
2023-04-15T00:19:45.873Z,8
2023-04-15T00:21:45.982Z,7
2023-04-15T00:23:46.130Z,6
2023-04-15T00:25:46.154Z,6
2023-04-15T00:27:46.251Z,4
2023-04-15T00:29:46.443Z,6
2023-04-15T00:31:46.449Z,3
2023-04-15T00:33:46.503Z,5
2023-04-15T00:35:46.593Z,8
2023-04-15T00:37:46.721Z,8
2023-04-15T00:39:46.780Z,6
2023-04-15T00:41:46.892Z,6
2023-04-15T00:43:46.972Z,5
2023-04-15T00:45:47.179Z,5
2023-04-15T00:47:47.201Z,4
2023-04-15T00:49:47.287Z,2
2023-04-15T00:51:47.359Z,3
2023-04-15T00:53:47.460Z,2
2023-04-15T00:55:47.556Z,3
2023-04-15T00:57:47.621Z,3
2023-04-15T00:59:47.674Z,4
2023-04-15T01:01:47.834Z,3
2023-04-15T01:05:47.973Z,3
2023-04-15T01:07:48.119Z,5
2023-04-15T01:09:48.130Z,5
2023-04-15T01:11:48.259Z,4
2023-04-15T01:13:48.323Z,4
2023-04-15T01:15:48.432Z,4
2023-04-15T01:17:48.509Z,5
2023-04-15T01:19:48.611Z,4
2023-04-15T01:21:48.691Z,5
2023-04-15T01:23:48.780Z,5
2023-04-15T01:25:48.854Z,4
2023-04-15T01:27:48.980Z,3
2023-04-15T01:29:49.134Z,6
2023-04-15T01:31:49.249Z,5
2023-04-15T01:35:49.325Z,12
2023-04-15T01:37:49.409Z,16
2023-04-15T01:39:49.518Z,8
2023-04-15T01:41:49.617Z,8
2023-04-15T01:43:49.678Z,11
2023-04-15T01:46:19.850Z,10
2023-04-15T01:48:19.934Z,13
2023-04-15T01:50:20.091Z,15
2023-04-15T01:52:20.180Z,9
2023-04-15T01:54:20.309Z,12
2023-04-15T01:56:20.428Z,10
2023-04-15T01:58:20.553Z,9
2023-04-15T02:00:20.663Z,10
2023-04-15T02:02:20.880Z,9
2023-04-15T02:04:20.911Z,7
2023-04-15T02:06:21.041Z,6
2023-04-15T02:08:21.140Z,6
2023-04-15T02:10:21.264Z,6
2023-04-15T02:14:21.778Z,7
2023-04-15T02:16:21.609Z,10
2023-04-15T02:18:21.688Z,10
2023-04-15T02:20:21.816Z,11
2023-04-15T02:22:21.907Z,7
2023-04-15T02:24:22.064Z,8
2023-04-15T02:26:22.175Z,7
2023-04-15T02:28:22.293Z,6
2023-04-15T02:30:22.373Z,10
2023-04-15T02:32:22.492Z,9
2023-04-15T02:34:22.575Z,7
2023-04-15T02:36:22.759Z,5
2023-04-15T02:40:22.948Z,5
2023-04-15T02:42:23.032Z,4
2023-04-15T02:44:23.135Z,4
2023-04-15T02:46:23.347Z,4
2023-04-15T02:48:23.371Z,4
2023-04-15T02:50:23.482Z,6
2023-04-15T02:52:23.573Z,6
2023-04-15T02:54:23.697Z,8
2023-04-15T02:56:23.819Z,10
2023-04-15T02:58:23.899Z,13
2023-04-15T03:00:24.015Z,12
2023-04-15T03:02:24.255Z,11
2023-04-15T03:04:24.220Z,15
2023-04-15T03:06:24.340Z,16
2023-04-15T03:08:24.476Z,14
2023-04-15T03:10:24.562Z,15
2023-04-15T03:12:24.692Z,8
2023-04-15T03:14:24.868Z,12
2023-04-15T03:16:24.897Z,9
2023-04-15T03:18:25.002Z,7
2023-04-15T03:20:25.157Z,8
2023-04-15T03:22:25.236Z,5
2023-04-15T03:24:25.351Z,6
2023-04-15T03:26:25.452Z,6
2023-04-15T03:28:25.548Z,5
2023-04-15T03:30:25.668Z,6
2023-04-15T03:32:25.839Z,7
2023-04-15T03:34:25.872Z,6
2023-04-15T03:36:25.992Z,8
2023-04-15T03:38:26.102Z,7
2023-04-15T03:40:26.215Z,6
2023-04-15T03:42:26.337Z,9
2023-04-15T03:44:26.426Z,10
2023-04-15T03:46:26.543Z,6
2023-04-15T03:48:26.646Z,8
2023-04-15T03:50:26.699Z,7
2023-04-15T03:52:26.814Z,7
2023-04-15T03:54:26.910Z,8
2023-04-15T03:56:27.020Z,5
2023-04-15T03:58:27.126Z,6
2023-04-15T04:00:27.222Z,7
2023-04-15T04:02:27.468Z,7
2023-04-15T04:04:27.565Z,9
2023-04-15T04:06:27.515Z,10
2023-04-15T04:08:27.628Z,9
2023-04-15T04:10:27.746Z,4
2023-04-15T04:12:27.863Z,8
2023-04-15T04:14:27.963Z,7
2023-04-15T04:16:28.193Z,6
2023-04-15T04:18:28.179Z,4
2023-04-15T04:20:28.264Z,6
2023-04-15T04:22:28.380Z,5
2023-04-15T04:24:28.499Z,3
2023-04-15T04:26:28.611Z,4
2023-04-15T04:28:28.711Z,3
2023-04-15T04:30:28.843Z,5
2023-04-15T04:32:28.974Z,4
2023-04-15T04:34:29.054Z,6
2023-04-15T04:36:29.155Z,4
2023-04-15T04:38:29.227Z,5
2023-04-15T04:40:29.346Z,9
2023-04-15T04:42:29.462Z,8
2023-04-15T04:44:29.539Z,8
2023-04-15T04:46:29.666Z,7
2023-04-15T04:48:29.751Z,5
2023-04-15T04:50:29.868Z,8
2023-04-15T04:52:29.939Z,7
2023-04-15T04:54:30.071Z,6
2023-04-15T04:56:30.188Z,5
2023-04-15T04:58:30.287Z,5
2023-04-15T05:00:30.343Z,7
2023-04-15T05:02:30.555Z,5
2023-04-15T05:04:30.556Z,8
2023-04-15T05:06:30.655Z,10
2023-04-15T05:08:30.792Z,8
2023-04-15T05:10:30.897Z,9
2023-04-15T05:12:30.984Z,9
2023-04-15T05:14:31.105Z,11
2023-04-15T05:16:31.180Z,16
2023-04-15T05:18:31.317Z,17
2023-04-15T05:20:31.413Z,13
2023-04-15T05:22:31.497Z,11
2023-04-15T05:24:31.624Z,10
2023-04-15T05:26:31.704Z,10
2023-04-15T05:28:31.804Z,7
2023-04-15T05:30:31.919Z,8
2023-04-15T05:32:32.072Z,10
2023-04-15T05:34:32.192Z,8
2023-04-15T05:36:32.228Z,7
2023-04-15T05:38:32.333Z,6
2023-04-15T05:40:32.398Z,5
2023-04-15T05:42:32.523Z,6
2023-04-15T05:44:32.594Z,8
2023-04-15T05:46:32.716Z,16
2023-04-15T05:48:32.796Z,11
2023-04-15T05:50:32.879Z,14
2023-04-15T05:52:32.990Z,11
2023-04-15T05:54:33.077Z,13
2023-04-15T05:56:33.200Z,16
2023-04-15T05:58:33.299Z,21
2023-04-15T06:00:33.357Z,19
2023-04-15T06:02:33.641Z,19
2023-04-15T06:04:33.637Z,17
2023-04-15T06:06:33.670Z,13
2023-04-15T06:08:33.788Z,9
2023-04-15T06:10:33.892Z,10
2023-04-15T06:12:33.983Z,11
2023-04-15T06:14:34.085Z,9
2023-04-15T06:16:34.190Z,7
2023-04-15T06:18:34.253Z,7
2023-04-15T06:20:34.334Z,7
2023-04-15T06:22:34.424Z,7
2023-04-15T06:26:34.646Z,8
2023-04-15T06:28:34.720Z,9
2023-04-15T06:30:34.806Z,9
2023-04-15T06:32:34.964Z,9
2023-04-15T06:34:34.988Z,9
2023-04-15T06:36:35.092Z,7
2023-04-15T06:38:35.183Z,9
2023-04-15T06:40:35.272Z,8
2023-04-15T06:44:35.461Z,9
2023-04-15T06:46:35.575Z,8
2023-04-15T06:48:35.666Z,9
2023-04-15T06:50:35.770Z,10
2023-04-15T06:52:35.792Z,11
2023-04-15T06:54:35.894Z,9
2023-04-15T06:56:35.972Z,11
2023-04-15T06:58:36.076Z,10
2023-04-15T07:02:36.434Z,11
2023-04-15T07:04:36.460Z,12
2023-04-15T07:06:36.410Z,10
2023-04-15T07:08:36.519Z,9
2023-04-15T07:10:36.590Z,10
2023-04-15T07:12:36.709Z,9
2023-04-15T07:14:36.777Z,10
2023-04-15T07:16:36.923Z,10
2023-04-15T07:18:36.996Z,12
2023-04-15T07:20:37.075Z,11
2023-04-15T07:22:37.164Z,10
2023-04-15T07:24:37.251Z,10
2023-04-15T07:26:37.330Z,13
2023-04-15T07:28:37.406Z,11
2023-04-15T07:30:37.523Z,12
2023-04-15T07:32:37.734Z,7
2023-04-15T07:34:37.667Z,6
2023-04-15T07:36:37.779Z,7
2023-04-15T07:38:37.865Z,6
2023-04-15T07:40:37.931Z,7
2023-04-15T07:42:39.412Z,6
2023-04-15T07:45:08.128Z,5
2023-04-15T07:47:08.250Z,4
2023-04-15T07:49:08.593Z,5
2023-04-15T07:51:08.476Z,7
2023-04-15T07:53:08.610Z,6
2023-04-15T07:55:08.707Z,4
2023-04-15T07:57:08.833Z,5
2023-04-15T07:59:08.932Z,5
2023-04-15T08:01:09.078Z,6
2023-04-15T08:03:09.419Z,6
2023-04-15T08:05:09.361Z,4
2023-04-15T08:07:09.397Z,6
2023-04-15T08:09:09.518Z,4
2023-04-15T08:11:09.706Z,4
2023-04-15T08:13:09.762Z,5
2023-04-15T08:15:09.868Z,7
2023-04-15T08:17:09.987Z,5
2023-04-15T08:19:10.120Z,3
2023-04-15T08:21:10.217Z,3
2023-04-15T08:25:10.453Z,6
2023-04-15T08:27:10.552Z,6
2023-04-15T08:29:10.673Z,3
2023-04-15T08:31:10.775Z,3
2023-04-15T08:35:10.989Z,6
2023-04-15T08:37:12.646Z,3
2023-04-15T08:39:11.225Z,3
2023-04-15T08:41:11.325Z,5
2023-04-15T08:43:11.436Z,4
2023-04-15T08:45:11.544Z,3
2023-04-15T08:47:11.653Z,5
2023-04-15T08:49:11.760Z,5
2023-04-15T08:51:11.845Z,4
2023-04-15T08:53:12.003Z,5
2023-04-15T08:55:12.165Z,4
2023-04-15T08:57:12.186Z,4
2023-04-15T08:59:12.365Z,2
2023-04-15T09:03:12.668Z,3
2023-04-15T09:05:12.633Z,4
2023-04-15T09:07:12.719Z,3
2023-04-15T09:09:12.858Z,3
2023-04-15T09:11:12.940Z,4
2023-04-15T09:13:13.067Z,4
2023-04-15T09:15:13.228Z,5
2023-04-15T09:17:13.274Z,7
2023-04-15T09:19:13.350Z,3
2023-04-15T09:21:13.432Z,1
2023-04-15T09:23:13.502Z,2
2023-04-15T09:25:13.601Z,2
2023-04-15T09:29:13.795Z,2
2023-04-15T09:31:13.954Z,3
2023-04-15T09:33:13.991Z,2
2023-04-15T09:35:14.102Z,4
2023-04-15T09:37:28.541Z,3
2023-04-15T09:39:14.272Z,2
2023-04-15T09:41:14.409Z,3
2023-04-15T09:43:14.480Z,2
2023-04-15T09:45:14.565Z,2
2023-04-15T09:47:14.666Z,3
2023-04-15T09:49:14.777Z,3
2023-04-15T09:51:14.793Z,2
2023-04-15T09:53:14.882Z,5
2023-04-15T09:55:15.034Z,4
2023-04-15T09:57:15.098Z,3
2023-04-15T09:59:15.191Z,3
2023-04-15T10:01:15.318Z,2
2023-04-15T10:03:15.551Z,3
2023-04-15T10:05:15.476Z,3
2023-04-15T10:07:15.551Z,2
2023-04-15T10:09:15.635Z,3
2023-04-15T10:11:15.829Z,3
2023-04-15T10:13:15.844Z,2
2023-04-15T10:15:15.943Z,9
2023-04-15T10:17:16.021Z,30
2023-04-15T10:19:16.106Z,8
2023-04-15T10:21:16.171Z,4
2023-04-15T10:23:16.294Z,4
2023-04-15T10:25:16.373Z,3
2023-04-15T10:27:16.481Z,5
2023-04-15T10:29:16.529Z,2
2023-04-15T10:31:46.845Z,2
2023-04-15T10:33:46.818Z,3
2023-04-15T10:35:46.887Z,3
2023-04-15T10:37:47.011Z,9
2023-04-15T10:39:47.164Z,5
2023-04-15T10:41:47.248Z,3
2023-04-15T10:43:47.373Z,2
2023-04-15T10:45:47.486Z,3
2023-04-15T10:47:47.651Z,3
2023-04-15T10:49:47.721Z,6
2023-04-15T10:51:47.803Z,3
2023-04-15T10:53:47.910Z,3
2023-04-15T10:55:48.015Z,3
2023-04-15T10:57:48.162Z,2
2023-04-15T10:59:48.272Z,2
2023-04-15T11:01:48.503Z,2
2023-04-15T11:03:48.772Z,2
2023-04-15T11:05:48.591Z,2
2023-04-15T11:07:48.696Z,1
2023-04-15T11:09:48.778Z,1
2023-04-15T11:11:48.895Z,2
2023-04-15T11:13:48.955Z,2
2023-04-15T11:15:49.258Z,2
2023-04-15T11:17:49.250Z,2
2023-04-15T11:21:49.396Z,2
2023-04-15T11:23:49.474Z,3
2023-04-15T11:25:49.567Z,3
2023-04-15T11:27:49.653Z,2
2023-04-15T11:29:49.782Z,2
2023-04-15T11:31:49.977Z,2
2023-04-15T11:33:49.979Z,2
2023-04-15T11:35:50.047Z,2
2023-04-15T11:37:50.212Z,3
2023-04-15T11:39:50.254Z,2
2023-04-15T11:43:50.444Z,3
2023-04-15T11:45:50.544Z,2
2023-04-15T11:47:50.638Z,2
2023-04-15T11:49:50.738Z,3
2023-04-15T11:51:50.799Z,2
2023-04-15T11:53:50.918Z,2
2023-04-15T11:55:51.001Z,2
2023-04-15T11:57:51.206Z,3
2023-04-15T11:59:51.278Z,2
2023-04-15T12:01:51.322Z,2
2023-04-15T12:03:51.529Z,2
2023-04-15T12:05:51.475Z,7
2023-04-15T12:07:51.545Z,12
2023-04-15T12:09:51.648Z,5
2023-04-15T12:11:51.747Z,6
2023-04-15T12:13:51.817Z,4
2023-04-15T12:15:52.000Z,3
2023-04-15T12:17:52.381Z,2
2023-04-15T12:19:52.115Z,3
2023-04-15T12:23:52.265Z,2
2023-04-15T12:25:52.344Z,3
2023-04-15T12:27:52.432Z,4
2023-04-15T12:29:52.514Z,2
2023-04-15T12:31:52.634Z,3
2023-04-15T12:33:52.681Z,2
2023-04-15T12:35:52.767Z,3
2023-04-15T12:38:22.900Z,3
2023-04-15T12:40:23.058Z,2
2023-04-15T12:42:23.099Z,2
2023-04-15T12:44:23.221Z,3
2023-04-15T12:46:23.360Z,2
2023-04-15T12:48:23.423Z,3
2023-04-15T12:50:23.527Z,3
2023-04-15T12:52:23.623Z,4
2023-04-15T12:54:23.731Z,2
2023-04-15T12:56:23.841Z,4
2023-04-15T12:58:23.902Z,4
2023-04-15T13:00:24.055Z,3
2023-04-15T13:02:24.265Z,3
2023-04-15T13:04:24.331Z,4
2023-04-15T13:06:24.286Z,5
2023-04-15T13:08:24.422Z,4
2023-04-15T13:10:24.497Z,4
2023-04-15T13:14:24.699Z,3
2023-04-15T13:16:24.850Z,3
2023-04-15T13:18:24.948Z,4
2023-04-15T13:20:25.017Z,4
2023-04-15T13:22:25.105Z,3
2023-04-15T13:24:25.234Z,5
2023-04-15T13:26:25.310Z,5
2023-04-15T13:28:25.565Z,6
2023-04-15T13:30:25.505Z,5
2023-04-15T13:32:25.631Z,4
2023-04-15T13:34:25.679Z,4
2023-04-15T13:38:25.885Z,6
2023-04-15T13:40:26.064Z,5
2023-04-15T13:42:26.088Z,6
2023-04-15T13:44:26.191Z,6
2023-04-15T13:46:26.305Z,4
2023-04-15T13:48:26.387Z,6
2023-04-15T13:50:26.560Z,5
2023-04-15T13:52:26.600Z,5
2023-04-15T13:54:26.682Z,3
2023-04-15T13:56:26.776Z,3
2023-04-15T13:58:26.897Z,5
2023-04-15T14:00:26.969Z,3
2023-04-15T14:04:27.394Z,4
2023-04-15T14:06:27.292Z,3
2023-04-15T14:08:27.391Z,3
2023-04-15T14:10:27.496Z,3
2023-04-15T14:12:27.606Z,3
2023-04-15T14:14:27.674Z,3
2023-04-15T14:16:27.800Z,4
2023-04-15T14:18:27.872Z,3
2023-04-15T14:20:27.964Z,2
2023-04-15T14:22:28.037Z,3
2023-04-15T14:24:28.159Z,3
2023-04-15T14:26:28.212Z,3
2023-04-15T14:28:28.302Z,5
2023-04-15T14:32:28.504Z,3
2023-04-15T14:34:28.564Z,6
2023-04-15T14:36:28.664Z,3
2023-04-15T14:38:28.764Z,4
2023-04-15T14:40:28.847Z,3
2023-04-15T14:42:28.904Z,3
2023-04-15T14:44:28.987Z,3
2023-04-15T14:48:29.154Z,2
2023-04-15T14:50:59.307Z,8
2023-04-15T14:52:59.444Z,7
2023-04-15T14:54:59.530Z,8
2023-04-15T14:56:59.681Z,5
2023-04-15T14:58:59.782Z,16
2023-04-15T15:00:59.877Z,10
2023-04-15T15:03:00.095Z,13
2023-04-15T15:05:00.220Z,13
2023-04-15T15:07:00.243Z,13
2023-04-15T15:09:00.362Z,11
2023-04-15T15:11:00.475Z,7
2023-04-15T15:13:00.612Z,6
2023-04-15T15:15:03.073Z,6
2023-04-15T15:17:00.832Z,13
2023-04-15T15:19:00.939Z,10
2023-04-15T15:21:01.007Z,9
2023-04-15T15:23:01.115Z,7
2023-04-15T15:25:01.232Z,8
2023-04-15T15:27:01.397Z,6
2023-04-15T15:29:01.463Z,7
2023-04-15T15:31:01.625Z,5
2023-04-15T15:33:01.739Z,6
2023-04-15T15:35:01.803Z,3
2023-04-15T15:37:02.099Z,4
2023-04-15T15:39:02.156Z,2
2023-04-15T15:41:02.129Z,3
2023-04-15T15:45:02.334Z,4
2023-04-15T15:47:02.510Z,4
2023-04-15T15:49:02.927Z,4
2023-04-15T15:51:02.635Z,3
2023-04-15T15:53:02.756Z,3
2023-04-15T15:55:02.860Z,5
2023-04-15T15:57:02.944Z,5
2023-04-15T15:59:03.368Z,5
2023-04-15T16:01:03.210Z,3
2023-04-15T16:03:07.289Z,3
2023-04-15T16:05:03.315Z,5
2023-04-15T16:07:03.402Z,3
2023-04-15T16:09:03.710Z,4
2023-04-15T16:11:03.613Z,2
2023-04-15T16:13:03.707Z,9
2023-04-15T16:15:03.821Z,13
2023-04-15T16:17:04.090Z,8
2023-04-15T16:19:04.192Z,5
2023-04-15T16:21:04.121Z,5
2023-04-15T16:23:04.277Z,5
2023-04-15T16:25:04.257Z,7
2023-04-15T16:27:04.347Z,9
2023-04-15T16:29:04.793Z,5
2023-04-15T16:31:04.508Z,5
2023-04-15T16:33:04.669Z,7
2023-04-15T16:35:04.727Z,10
2023-04-15T16:37:04.815Z,7
2023-04-15T16:39:05.081Z,8
2023-04-15T16:41:04.989Z,8
2023-04-15T16:43:05.106Z,7
2023-04-15T16:45:05.179Z,5
2023-04-15T16:47:05.279Z,9
2023-04-15T16:49:05.633Z,8
2023-04-15T16:51:05.505Z,8
2023-04-15T16:53:05.545Z,10
2023-04-15T16:55:05.662Z,10
2023-04-15T16:57:05.722Z,14
2023-04-15T16:59:05.990Z,25
2023-04-15T17:01:05.893Z,33
2023-04-15T17:03:06.250Z,37
2023-04-15T17:05:06.073Z,30
2023-04-15T17:07:06.194Z,29
2023-04-15T17:09:06.397Z,15
2023-04-15T17:11:06.349Z,14
2023-04-15T17:13:36.462Z,17
2023-04-15T17:15:36.644Z,21
2023-04-15T17:17:36.706Z,17
2023-04-15T17:19:36.824Z,19
2023-04-15T17:21:36.917Z,20
2023-04-15T17:23:37.028Z,28
2023-04-15T17:25:37.141Z,27
2023-04-15T17:27:37.278Z,33
2023-04-15T17:29:37.366Z,28
2023-04-15T17:31:37.564Z,25
2023-04-15T17:33:58.022Z,21
2023-04-15T17:35:37.662Z,19
2023-04-15T17:37:37.793Z,18
2023-04-15T17:39:37.905Z,15
2023-04-15T17:41:37.991Z,17
2023-04-15T17:43:38.132Z,22
2023-04-15T17:45:38.219Z,21
2023-04-15T17:47:38.371Z,19
2023-04-15T17:49:38.515Z,27
2023-04-15T17:51:38.571Z,16
2023-04-15T17:53:38.682Z,12
2023-04-15T17:55:38.803Z,15
2023-04-15T17:57:38.885Z,13
2023-04-15T17:59:38.991Z,15
2023-04-15T18:01:39.152Z,14
2023-04-15T18:03:39.246Z,11
2023-04-15T18:05:40.320Z,13
2023-04-15T18:07:39.368Z,10
2023-04-15T18:09:39.478Z,8
2023-04-15T18:11:39.672Z,9
2023-04-15T18:13:40.215Z,8
2023-04-15T18:15:39.773Z,13
2023-04-15T18:17:39.947Z,11
2023-04-15T18:19:40.105Z,12
2023-04-15T18:21:40.105Z,11
2023-04-15T18:23:40.208Z,17
2023-04-15T18:25:40.318Z,14
2023-04-15T18:27:40.442Z,16
2023-04-15T18:29:40.522Z,22
2023-04-15T18:31:40.685Z,21
2023-04-15T18:33:40.818Z,19
2023-04-15T18:35:40.848Z,16
2023-04-15T18:37:40.973Z,17
2023-04-15T18:39:41.071Z,15
2023-04-15T18:41:41.176Z,15
2023-04-15T18:43:41.322Z,15
2023-04-15T18:45:41.453Z,23
2023-04-15T18:47:41.473Z,29
2023-04-15T18:49:41.579Z,25
2023-04-15T18:51:41.667Z,19
2023-04-15T18:53:41.764Z,18
2023-04-15T18:55:41.892Z,17
2023-04-15T18:57:42.011Z,12
2023-04-15T18:59:42.075Z,13
2023-04-15T19:01:42.222Z,12
2023-04-15T19:03:42.309Z,10
2023-04-15T19:05:42.339Z,9
2023-04-15T19:07:42.459Z,11
2023-04-15T19:09:42.548Z,12
2023-04-15T19:11:42.663Z,13
2023-04-15T19:13:42.737Z,11
2023-04-15T19:15:42.851Z,15
2023-04-15T19:17:42.990Z,14
2023-04-15T19:19:43.032Z,17
2023-04-15T19:21:43.130Z,14
2023-04-15T19:23:43.217Z,11
2023-04-15T19:25:43.335Z,9
2023-04-15T19:27:43.375Z,8
2023-04-15T19:29:43.483Z,8
2023-04-15T19:31:43.629Z,7
2023-04-15T19:33:43.694Z,7
2023-04-15T19:35:43.772Z,9
2023-04-15T19:37:43.887Z,8
2023-04-15T19:39:43.974Z,8
2023-04-15T19:41:44.043Z,7
2023-04-15T19:43:44.152Z,8
2023-04-15T19:45:44.292Z,11
2023-04-15T19:47:44.386Z,10
2023-04-15T19:49:44.426Z,8
2023-04-15T19:51:44.536Z,9
2023-04-15T19:53:44.658Z,10
2023-04-15T19:55:44.715Z,9
2023-04-15T19:57:44.827Z,10
2023-04-15T19:59:44.877Z,14
2023-04-15T20:01:45.042Z,12
2023-04-15T20:03:45.270Z,12
2023-04-15T20:05:45.168Z,14
2023-04-15T20:07:45.227Z,12
2023-04-15T20:09:45.412Z,17
2023-04-15T20:12:10.040Z,23
2023-04-15T20:13:45.513Z,17
2023-04-15T20:15:45.698Z,20
2023-04-15T20:17:45.757Z,34
2023-04-15T20:19:45.785Z,19
2023-04-15T20:21:45.869Z,19
2023-04-15T20:23:45.985Z,16
2023-04-15T20:25:46.082Z,17
2023-04-15T20:27:46.131Z,16
2023-04-15T20:29:46.223Z,16
2023-04-15T20:31:46.383Z,13
2023-04-15T20:33:46.432Z,14
2023-04-15T20:35:46.534Z,12
2023-04-15T20:37:46.587Z,13
2023-04-15T20:39:46.676Z,13
2023-04-15T20:42:16.810Z,19
2023-04-15T20:44:16.934Z,11
2023-04-15T20:46:21.138Z,14
2023-04-15T20:48:17.167Z,9
2023-04-15T20:50:17.276Z,8
2023-04-15T20:52:17.406Z,11
2023-04-15T20:54:17.526Z,11
2023-04-15T20:56:17.638Z,10
2023-04-15T20:58:17.760Z,13
2023-04-15T21:00:17.864Z,16
2023-04-15T21:02:18.078Z,12
2023-04-15T21:04:18.124Z,11
2023-04-15T21:06:18.213Z,6
2023-04-15T21:08:18.373Z,6
2023-04-15T21:10:18.466Z,6
2023-04-15T21:12:18.571Z,7
2023-04-15T21:14:18.694Z,11
2023-04-15T21:16:18.824Z,12
2023-04-15T21:18:18.873Z,21
2023-04-15T21:20:19.074Z,17
2023-04-15T21:22:19.122Z,14
2023-04-15T21:24:19.261Z,15
2023-04-15T21:26:19.367Z,13
2023-04-15T21:28:19.452Z,11
2023-04-15T21:30:19.572Z,10
2023-04-15T21:32:19.857Z,9
2023-04-15T21:34:19.781Z,7
2023-04-15T21:36:19.903Z,9
2023-04-15T21:38:21.323Z,9
2023-04-15T21:40:20.103Z,13
2023-04-15T21:42:20.313Z,16
2023-04-15T21:44:20.357Z,18
2023-04-15T21:46:22.295Z,15
2023-04-15T21:48:20.561Z,14
2023-04-15T21:50:20.674Z,14
2023-04-15T21:52:20.780Z,13
2023-04-15T21:54:20.891Z,12
2023-04-15T21:56:20.994Z,16
2023-04-15T21:58:21.104Z,22
2023-04-15T22:00:21.235Z,44
2023-04-15T22:02:21.459Z,41
2023-04-15T22:04:21.610Z,39
2023-04-15T22:06:21.550Z,34
2023-04-15T22:08:21.683Z,36
2023-04-15T22:10:21.768Z,28
2023-04-15T22:12:21.870Z,22
2023-04-15T22:14:22.025Z,20
2023-04-15T22:16:22.175Z,22
2023-04-15T22:18:22.210Z,20
2023-04-15T22:20:22.313Z,16
2023-04-15T22:22:22.430Z,14
2023-04-15T22:24:32.769Z,16
2023-04-15T22:26:22.684Z,16
2023-04-15T22:28:22.699Z,18
2023-04-15T22:30:22.846Z,17
2023-04-15T22:32:22.961Z,18
2023-04-15T22:34:23.015Z,23
2023-04-15T22:36:23.134Z,23
2023-04-15T22:38:23.228Z,17
2023-04-15T22:40:23.311Z,17
2023-04-15T22:42:23.428Z,16
2023-04-15T22:44:23.527Z,16
2023-04-15T22:46:23.639Z,15
2023-04-15T22:48:23.726Z,42
2023-04-15T22:50:23.832Z,22
2023-04-15T22:52:30.468Z,20
2023-04-15T22:54:24.045Z,23
2023-04-15T22:56:24.133Z,18
2023-04-15T22:58:24.260Z,19
2023-04-15T23:02:24.712Z,18
2023-04-15T23:04:26.098Z,19
2023-04-15T23:06:24.638Z,21
2023-04-15T23:08:24.723Z,26
2023-04-15T23:10:24.863Z,25
2023-04-15T23:12:24.959Z,15
2023-04-15T23:16:25.213Z,18
2023-04-15T23:18:25.250Z,17
2023-04-15T23:20:25.377Z,11
2023-04-15T23:22:25.467Z,11
2023-04-15T23:24:25.597Z,10
2023-04-15T23:26:25.679Z,11
2023-04-15T23:28:25.797Z,10
2023-04-15T23:30:25.885Z,12
2023-04-15T23:32:26.023Z,13
2023-04-15T23:34:26.068Z,7
2023-04-15T23:36:26.176Z,9
2023-04-15T23:38:26.296Z,9
2023-04-15T23:40:26.384Z,18
2023-04-15T23:42:26.495Z,24
2023-04-15T23:44:26.591Z,23
2023-04-15T23:46:26.721Z,21
2023-04-15T23:48:26.773Z,22
2023-04-15T23:50:26.905Z,19
2023-04-15T23:52:27.038Z,16
2023-04-15T23:54:27.087Z,16
2023-04-15T23:56:27.192Z,14
2023-04-15T23:58:27.299Z,14
